sensor_id;sensor_type;location;lat;lon;timestamp;P1;durP1;ratioP1;P2;durP2;ratioP2
74158;SDS011;62511;47.970;11.774;2023-05-10T00:02:09;0.93;;;0.70;;
74158;SDS011;62511;47.970;11.774;2023-05-10T00:04:35;0.88;;;0.63;;
74158;SDS011;62511;47.970;11.774;2023-05-10T00:07:01;0.63;;;0.60;;
74158;SDS011;62511;47.970;11.774;2023-05-10T00:09:27;1.95;;;0.68;;
74158;SDS011;62511;47.970;11.774;2023-05-10T00:11:53;0.80;;;0.63;;
74158;SDS011;62511;47.970;11.774;2023-05-10T00:14:19;0.73;;;0.60;;
74158;SDS011;62511;47.970;11.774;2023-05-10T00:16:45;1.13;;;0.65;;
74158;SDS011;62511;47.970;11.774;2023-05-10T00:19:11;0.50;;;0.35;;
74158;SDS011;62511;47.970;11.774;2023-05-10T00:21:39;0.65;;;0.60;;
74158;SDS011;62511;47.970;11.774;2023-05-10T00:24:05;1.00;;;0.50;;
74158;SDS011;62511;47.970;11.774;2023-05-10T00:26:31;1.73;;;0.52;;
74158;SDS011;62511;47.970;11.774;2023-05-10T00:28:58;2.90;;;0.65;;
74158;SDS011;62511;47.970;11.774;2023-05-10T00:31:27;0.55;;;0.45;;
74158;SDS011;62511;47.970;11.774;2023-05-10T00:33:56;1.25;;;0.45;;
74158;SDS011;62511;47.970;11.774;2023-05-10T00:36:22;1.05;;;0.40;;
74158;SDS011;62511;47.970;11.774;2023-05-10T00:38:48;0.43;;;0.40;;
74158;SDS011;62511;47.970;11.774;2023-05-10T00:41:14;3.90;;;0.60;;
74158;SDS011;62511;47.970;11.774;2023-05-10T00:43:41;0.88;;;0.40;;
74158;SDS011;62511;47.970;11.774;2023-05-10T00:46:07;0.40;;;0.40;;
74158;SDS011;62511;47.970;11.774;2023-05-10T00:48:33;0.43;;;0.43;;
74158;SDS011;62511;47.970;11.774;2023-05-10T00:51:00;1.35;;;0.35;;
74158;SDS011;62511;47.970;11.774;2023-05-10T00:53:26;1.05;;;0.50;;
74158;SDS011;62511;47.970;11.774;2023-05-10T00:55:52;0.60;;;0.50;;
74158;SDS011;62511;47.970;11.774;2023-05-10T00:58:19;0.88;;;0.40;;
74158;SDS011;62511;47.970;11.774;2023-05-10T01:00:46;0.70;;;0.50;;
74158;SDS011;62511;47.970;11.774;2023-05-10T01:03:13;1.05;;;0.68;;
74158;SDS011;62511;47.970;11.774;2023-05-10T01:05:39;0.55;;;0.45;;
74158;SDS011;62511;47.970;11.774;2023-05-10T01:08:05;0.43;;;0.30;;
74158;SDS011;62511;47.970;11.774;2023-05-10T01:10:33;0.90;;;0.50;;
74158;SDS011;62511;47.970;11.774;2023-05-10T01:13:00;1.95;;;0.52;;
74158;SDS011;62511;47.970;11.774;2023-05-10T01:15:26;0.75;;;0.38;;
74158;SDS011;62511;47.970;11.774;2023-05-10T01:17:52;0.20;;;0.10;;
74158;SDS011;62511;47.970;11.774;2023-05-10T01:20:19;0.43;;;0.30;;
74158;SDS011;62511;47.970;11.774;2023-05-10T01:25:28;1.00;;;0.30;;
74158;SDS011;62511;47.970;11.774;2023-05-10T01:30:42;0.45;;;0.20;;
74158;SDS011;62511;47.970;11.774;2023-05-10T01:41:24;0.60;;;0.30;;
74158;SDS011;62511;47.970;11.774;2023-05-10T01:46:37;0.52;;;0.40;;
74158;SDS011;62511;47.970;11.774;2023-05-10T01:49:23;1.63;;;0.38;;
74158;SDS011;62511;47.970;11.774;2023-05-10T01:52:06;0.30;;;0.30;;
74158;SDS011;62511;47.970;11.774;2023-05-10T01:54:35;0.38;;;0.30;;
74158;SDS011;62511;47.970;11.774;2023-05-10T01:57:05;0.65;;;0.43;;
74158;SDS011;62511;47.970;11.774;2023-05-10T01:59:36;0.30;;;0.30;;
74158;SDS011;62511;47.970;11.774;2023-05-10T02:02:07;0.32;;;0.30;;
74158;SDS011;62511;47.970;11.774;2023-05-10T02:04:37;0.50;;;0.38;;
74158;SDS011;62511;47.970;11.774;2023-05-10T02:07:04;0.25;;;0.25;;
74158;SDS011;62511;47.970;11.774;2023-05-10T02:09:32;0.45;;;0.40;;
74158;SDS011;62511;47.970;11.774;2023-05-10T02:11:59;0.20;;;0.20;;
74158;SDS011;62511;47.970;11.774;2023-05-10T02:14:30;0.40;;;0.30;;
74158;SDS011;62511;47.970;11.774;2023-05-10T02:16:59;1.38;;;0.30;;
74158;SDS011;62511;47.970;11.774;2023-05-10T02:19:26;1.13;;;0.28;;
74158;SDS011;62511;47.970;11.774;2023-05-10T02:21:55;0.25;;;0.25;;
74158;SDS011;62511;47.970;11.774;2023-05-10T02:24:24;0.45;;;0.22;;
74158;SDS011;62511;47.970;11.774;2023-05-10T02:26:57;0.47;;;0.40;;
74158;SDS011;62511;47.970;11.774;2023-05-10T02:29:32;0.77;;;0.32;;
74158;SDS011;62511;47.970;11.774;2023-05-10T02:32:01;0.20;;;0.20;;
74158;SDS011;62511;47.970;11.774;2023-05-10T02:34:30;0.25;;;0.20;;
74158;SDS011;62511;47.970;11.774;2023-05-10T02:37:18;0.25;;;0.25;;
74158;SDS011;62511;47.970;11.774;2023-05-10T02:39:54;0.68;;;0.30;;
74158;SDS011;62511;47.970;11.774;2023-05-10T02:42:32;0.40;;;0.30;;
74158;SDS011;62511;47.970;11.774;2023-05-10T02:45:02;0.75;;;0.28;;
74158;SDS011;62511;47.970;11.774;2023-05-10T02:47:30;0.57;;;0.32;;
74158;SDS011;62511;47.970;11.774;2023-05-10T02:49:57;0.40;;;0.40;;
74158;SDS011;62511;47.970;11.774;2023-05-10T02:52:30;0.40;;;0.40;;
74158;SDS011;62511;47.970;11.774;2023-05-10T02:55:19;1.63;;;0.43;;
74158;SDS011;62511;47.970;11.774;2023-05-10T02:57:51;0.50;;;0.30;;
74158;SDS011;62511;47.970;11.774;2023-05-10T03:00:17;0.73;;;0.30;;
74158;SDS011;62511;47.970;11.774;2023-05-10T03:02:53;0.50;;;0.35;;
74158;SDS011;62511;47.970;11.774;2023-05-10T03:05:19;0.63;;;0.20;;
74158;SDS011;62511;47.970;11.774;2023-05-10T03:07:47;0.30;;;0.25;;
74158;SDS011;62511;47.970;11.774;2023-05-10T03:10:13;0.40;;;0.28;;
74158;SDS011;62511;47.970;11.774;2023-05-10T03:15:37;0.30;;;0.20;;
74158;SDS011;62511;47.970;11.774;2023-05-10T03:18:33;0.93;;;0.25;;
74158;SDS011;62511;47.970;11.774;2023-05-10T03:21:08;0.52;;;0.30;;
74158;SDS011;62511;47.970;11.774;2023-05-10T03:23:44;0.40;;;0.30;;
74158;SDS011;62511;47.970;11.774;2023-05-10T03:26:17;0.50;;;0.30;;
74158;SDS011;62511;47.970;11.774;2023-05-10T03:28:50;0.20;;;0.20;;
74158;SDS011;62511;47.970;11.774;2023-05-10T03:31:17;0.50;;;0.10;;
74158;SDS011;62511;47.970;11.774;2023-05-10T03:33:46;0.28;;;0.20;;
74158;SDS011;62511;47.970;11.774;2023-05-10T03:36:13;0.28;;;0.20;;
74158;SDS011;62511;47.970;11.774;2023-05-10T03:38:40;0.57;;;0.20;;
74158;SDS011;62511;47.970;11.774;2023-05-10T03:41:08;0.30;;;0.20;;
74158;SDS011;62511;47.970;11.774;2023-05-10T03:46:04;0.20;;;0.10;;
74158;SDS011;62511;47.970;11.774;2023-05-10T03:48:30;0.20;;;0.20;;
74158;SDS011;62511;47.970;11.774;2023-05-10T03:50:56;0.13;;;0.13;;
74158;SDS011;62511;47.970;11.774;2023-05-10T03:55:59;0.22;;;0.13;;
74158;SDS011;62511;47.970;11.774;2023-05-10T03:58:25;0.38;;;0.20;;
74158;SDS011;62511;47.970;11.774;2023-05-10T04:00:53;0.90;;;0.30;;
74158;SDS011;62511;47.970;11.774;2023-05-10T04:03:21;0.28;;;0.20;;
74158;SDS011;62511;47.970;11.774;2023-05-10T04:05:48;0.50;;;0.20;;
74158;SDS011;62511;47.970;11.774;2023-05-10T04:08:16;0.35;;;0.30;;
74158;SDS011;62511;47.970;11.774;2023-05-10T04:10:43;0.57;;;0.20;;
74158;SDS011;62511;47.970;11.774;2023-05-10T04:13:47;0.30;;;0.20;;
74158;SDS011;62511;47.970;11.774;2023-05-10T04:16:29;0.45;;;0.28;;
74158;SDS011;62511;47.970;11.774;2023-05-10T04:18:55;0.30;;;0.30;;
74158;SDS011;62511;47.970;11.774;2023-05-10T04:21:30;0.17;;;0.17;;
74158;SDS011;62511;47.970;11.774;2023-05-10T04:24:20;0.30;;;0.30;;
74158;SDS011;62511;47.970;11.774;2023-05-10T04:26:56;0.20;;;0.20;;
74158;SDS011;62511;47.970;11.774;2023-05-10T04:29:23;0.55;;;0.20;;
74158;SDS011;62511;47.970;11.774;2023-05-10T04:32:24;1.45;;;0.20;;
74158;SDS011;62511;47.970;11.774;2023-05-10T04:34:44;0.30;;;0.30;;
74158;SDS011;62511;47.970;11.774;2023-05-10T04:37:23;0.30;;;0.10;;
74158;SDS011;62511;47.970;11.774;2023-05-10T04:40:11;0.20;;;0.20;;
74158;SDS011;62511;47.970;11.774;2023-05-10T04:42:42;0.10;;;0.10;;
74158;SDS011;62511;47.970;11.774;2023-05-10T04:45:11;0.10;;;0.10;;
74158;SDS011;62511;47.970;11.774;2023-05-10T04:47:37;0.20;;;0.20;;
74158;SDS011;62511;47.970;11.774;2023-05-10T04:50:03;0.17;;;0.17;;
74158;SDS011;62511;47.970;11.774;2023-05-10T04:52:31;0.50;;;0.20;;
74158;SDS011;62511;47.970;11.774;2023-05-10T04:54:58;0.52;;;0.20;;
74158;SDS011;62511;47.970;11.774;2023-05-10T04:57:32;0.20;;;0.10;;
74158;SDS011;62511;47.970;11.774;2023-05-10T05:00:12;1.15;;;0.50;;
74158;SDS011;62511;47.970;11.774;2023-05-10T05:02:44;0.40;;;0.30;;
74158;SDS011;62511;47.970;11.774;2023-05-10T05:05:17;0.20;;;0.15;;
74158;SDS011;62511;47.970;11.774;2023-05-10T05:07:44;0.20;;;0.20;;
74158;SDS011;62511;47.970;11.774;2023-05-10T05:10:11;0.65;;;0.20;;
74158;SDS011;62511;47.970;11.774;2023-05-10T05:12:42;0.30;;;0.30;;
74158;SDS011;62511;47.970;11.774;2023-05-10T05:15:09;2.10;;;0.17;;
74158;SDS011;62511;47.970;11.774;2023-05-10T05:17:39;0.30;;;0.20;;
74158;SDS011;62511;47.970;11.774;2023-05-10T05:20:05;0.20;;;0.20;;
74158;SDS011;62511;47.970;11.774;2023-05-10T05:22:32;0.32;;;0.10;;
74158;SDS011;62511;47.970;11.774;2023-05-10T05:27:27;0.47;;;0.20;;
74158;SDS011;62511;47.970;11.774;2023-05-10T05:29:53;0.30;;;0.20;;
74158;SDS011;62511;47.970;11.774;2023-05-10T05:32:19;0.90;;;0.20;;
74158;SDS011;62511;47.970;11.774;2023-05-10T05:34:45;0.13;;;0.10;;
74158;SDS011;62511;47.970;11.774;2023-05-10T05:37:12;0.20;;;0.20;;
74158;SDS011;62511;47.970;11.774;2023-05-10T05:39:39;0.10;;;0.10;;
74158;SDS011;62511;47.970;11.774;2023-05-10T05:42:05;0.00;;;0.00;;
74158;SDS011;62511;47.970;11.774;2023-05-10T05:44:31;0.73;;;0.25;;
74158;SDS011;62511;47.970;11.774;2023-05-10T05:47:03;0.03;;;0.00;;
74158;SDS011;62511;47.970;11.774;2023-05-10T05:49:30;0.85;;;0.15;;
74158;SDS011;62511;47.970;11.774;2023-05-10T05:52:01;0.10;;;0.10;;
74158;SDS011;62511;47.970;11.774;2023-05-10T05:54:28;0.60;;;0.10;;
74158;SDS011;62511;47.970;11.774;2023-05-10T05:56:55;0.10;;;0.10;;
74158;SDS011;62511;47.970;11.774;2023-05-10T05:59:21;0.08;;;0.08;;
74158;SDS011;62511;47.970;11.774;2023-05-10T06:01:47;0.63;;;0.13;;
74158;SDS011;62511;47.970;11.774;2023-05-10T06:04:14;0.20;;;0.10;;
74158;SDS011;62511;47.970;11.774;2023-05-10T06:06:40;0.60;;;0.17;;
74158;SDS011;62511;47.970;11.774;2023-05-10T06:09:07;0.85;;;0.40;;
74158;SDS011;62511;47.970;11.774;2023-05-10T06:11:33;0.17;;;0.10;;
74158;SDS011;62511;47.970;11.774;2023-05-10T06:14:01;1.40;;;0.30;;
74158;SDS011;62511;47.970;11.774;2023-05-10T06:16:28;1.95;;;0.20;;
74158;SDS011;62511;47.970;11.774;2023-05-10T06:18:54;0.00;;;0.00;;
74158;SDS011;62511;47.970;11.774;2023-05-10T06:21:20;1.90;;;0.35;;
74158;SDS011;62511;47.970;11.774;2023-05-10T06:23:50;0.10;;;0.10;;
74158;SDS011;62511;47.970;11.774;2023-05-10T06:26:17;0.20;;;0.20;;
74158;SDS011;62511;47.970;11.774;2023-05-10T06:28:45;0.10;;;0.10;;
74158;SDS011;62511;47.970;11.774;2023-05-10T06:31:12;2.30;;;0.28;;
74158;SDS011;62511;47.970;11.774;2023-05-10T06:33:53;3.55;;;0.85;;
74158;SDS011;62511;47.970;11.774;2023-05-10T06:36:19;2.63;;;0.30;;
74158;SDS011;62511;47.970;11.774;2023-05-10T06:39:09;3.70;;;0.95;;
74158;SDS011;62511;47.970;11.774;2023-05-10T06:44:23;2.03;;;0.38;;
74158;SDS011;62511;47.970;11.774;2023-05-10T06:46:54;2.65;;;0.45;;
74158;SDS011;62511;47.970;11.774;2023-05-10T06:49:22;1.08;;;0.30;;
74158;SDS011;62511;47.970;11.774;2023-05-10T06:51:48;1.58;;;0.30;;
74158;SDS011;62511;47.970;11.774;2023-05-10T06:54:14;0.40;;;0.25;;
74158;SDS011;62511;47.970;11.774;2023-05-10T06:56:43;1.65;;;0.30;;
74158;SDS011;62511;47.970;11.774;2023-05-10T06:59:10;0.10;;;0.10;;
74158;SDS011;62511;47.970;11.774;2023-05-10T07:01:41;0.55;;;0.35;;
74158;SDS011;62511;47.970;11.774;2023-05-10T07:04:07;0.20;;;0.20;;
74158;SDS011;62511;47.970;11.774;2023-05-10T07:06:36;0.90;;;0.32;;
74158;SDS011;62511;47.970;11.774;2023-05-10T07:09:04;2.72;;;0.45;;
74158;SDS011;62511;47.970;11.774;2023-05-10T07:11:31;0.20;;;0.20;;
74158;SDS011;62511;47.970;11.774;2023-05-10T07:14:00;1.10;;;0.60;;
74158;SDS011;62511;47.970;11.774;2023-05-10T07:16:33;0.50;;;0.40;;
74158;SDS011;62511;47.970;11.774;2023-05-10T07:19:07;2.28;;;0.40;;
74158;SDS011;62511;47.970;11.774;2023-05-10T07:21:35;1.48;;;0.50;;
74158;SDS011;62511;47.970;11.774;2023-05-10T07:24:02;0.70;;;0.40;;
74158;SDS011;62511;47.970;11.774;2023-05-10T07:26:33;1.80;;;0.85;;
74158;SDS011;62511;47.970;11.774;2023-05-10T07:29:00;1.38;;;0.50;;
74158;SDS011;62511;47.970;11.774;2023-05-10T07:31:31;0.55;;;0.55;;
74158;SDS011;62511;47.970;11.774;2023-05-10T07:33:57;0.55;;;0.40;;
74158;SDS011;62511;47.970;11.774;2023-05-10T07:36:23;0.38;;;0.30;;
74158;SDS011;62511;47.970;11.774;2023-05-10T07:38:49;1.05;;;0.32;;
74158;SDS011;62511;47.970;11.774;2023-05-10T07:41:16;0.65;;;0.50;;
74158;SDS011;62511;47.970;11.774;2023-05-10T07:43:42;0.50;;;0.50;;
74158;SDS011;62511;47.970;11.774;2023-05-10T07:46:10;1.30;;;0.40;;
74158;SDS011;62511;47.970;11.774;2023-05-10T07:48:43;0.73;;;0.50;;
74158;SDS011;62511;47.970;11.774;2023-05-10T07:51:19;1.13;;;0.40;;
74158;SDS011;62511;47.970;11.774;2023-05-10T07:53:47;2.47;;;0.70;;
74158;SDS011;62511;47.970;11.774;2023-05-10T07:56:21;0.40;;;0.40;;
74158;SDS011;62511;47.970;11.774;2023-05-10T07:58:47;2.22;;;0.60;;
74158;SDS011;62511;47.970;11.774;2023-05-10T08:01:14;0.68;;;0.63;;
74158;SDS011;62511;47.970;11.774;2023-05-10T08:06:08;1.08;;;0.70;;
74158;SDS011;62511;47.970;11.774;2023-05-10T08:08:34;0.50;;;0.43;;
74158;SDS011;62511;47.970;11.774;2023-05-10T08:11:00;0.55;;;0.40;;
74158;SDS011;62511;47.970;11.774;2023-05-10T08:13:26;0.45;;;0.40;;
74158;SDS011;62511;47.970;11.774;2023-05-10T08:15:52;0.50;;;0.40;;
74158;SDS011;62511;47.970;11.774;2023-05-10T08:18:18;0.20;;;0.20;;
74158;SDS011;62511;47.970;11.774;2023-05-10T08:20:45;0.50;;;0.40;;
74158;SDS011;62511;47.970;11.774;2023-05-10T08:23:14;0.45;;;0.30;;
74158;SDS011;62511;47.970;11.774;2023-05-10T08:25:43;0.85;;;0.60;;
74158;SDS011;62511;47.970;11.774;2023-05-10T08:28:09;2.80;;;0.40;;
74158;SDS011;62511;47.970;11.774;2023-05-10T08:30:35;1.52;;;0.50;;
74158;SDS011;62511;47.970;11.774;2023-05-10T08:33:01;0.45;;;0.40;;
74158;SDS011;62511;47.970;11.774;2023-05-10T08:35:28;1.20;;;0.40;;
74158;SDS011;62511;47.970;11.774;2023-05-10T08:37:54;0.95;;;0.40;;
74158;SDS011;62511;47.970;11.774;2023-05-10T08:40:20;0.52;;;0.50;;
74158;SDS011;62511;47.970;11.774;2023-05-10T08:42:51;2.42;;;0.50;;
74158;SDS011;62511;47.970;11.774;2023-05-10T08:45:19;1.05;;;0.40;;
74158;SDS011;62511;47.970;11.774;2023-05-10T08:47:45;1.40;;;0.30;;
74158;SDS011;62511;47.970;11.774;2023-05-10T08:50:12;0.70;;;0.60;;
74158;SDS011;62511;47.970;11.774;2023-05-10T08:52:41;0.43;;;0.32;;
74158;SDS011;62511;47.970;11.774;2023-05-10T08:55:07;1.20;;;0.60;;
74158;SDS011;62511;47.970;11.774;2023-05-10T08:57:35;1.05;;;0.77;;
74158;SDS011;62511;47.970;11.774;2023-05-10T09:00:01;1.63;;;0.70;;
74158;SDS011;62511;47.970;11.774;2023-05-10T09:02:27;0.57;;;0.50;;
74158;SDS011;62511;47.970;11.774;2023-05-10T09:04:54;1.80;;;0.70;;
74158;SDS011;62511;47.970;11.774;2023-05-10T09:07:22;0.73;;;0.43;;
74158;SDS011;62511;47.970;11.774;2023-05-10T09:09:48;1.15;;;0.60;;
74158;SDS011;62511;47.970;11.774;2023-05-10T09:12:14;1.85;;;0.70;;
74158;SDS011;62511;47.970;11.774;2023-05-10T09:14:42;0.85;;;0.43;;
74158;SDS011;62511;47.970;11.774;2023-05-10T09:17:10;0.50;;;0.50;;
74158;SDS011;62511;47.970;11.774;2023-05-10T09:19:36;0.60;;;0.50;;
74158;SDS011;62511;47.970;11.774;2023-05-10T09:22:05;2.22;;;0.70;;
74158;SDS011;62511;47.970;11.774;2023-05-10T09:24:41;0.32;;;0.32;;
74158;SDS011;62511;47.970;11.774;2023-05-10T09:27:10;0.55;;;0.55;;
74158;SDS011;62511;47.970;11.774;2023-05-10T09:29:41;0.30;;;0.30;;
74158;SDS011;62511;47.970;11.774;2023-05-10T09:32:08;0.95;;;0.50;;
74158;SDS011;62511;47.970;11.774;2023-05-10T09:34:34;0.60;;;0.30;;
74158;SDS011;62511;47.970;11.774;2023-05-10T09:37:04;1.95;;;0.50;;
74158;SDS011;62511;47.970;11.774;2023-05-10T09:39:31;0.77;;;0.60;;
74158;SDS011;62511;47.970;11.774;2023-05-10T09:42:01;0.95;;;0.30;;
74158;SDS011;62511;47.970;11.774;2023-05-10T09:44:28;0.75;;;0.43;;
74158;SDS011;62511;47.970;11.774;2023-05-10T09:46:56;1.30;;;0.60;;
74158;SDS011;62511;47.970;11.774;2023-05-10T09:49:22;4.47;;;0.47;;
74158;SDS011;62511;47.970;11.774;2023-05-10T09:57:33;1.23;;;0.75;;
74158;SDS011;62511;47.970;11.774;2023-05-10T10:00:20;2.60;;;0.82;;
74158;SDS011;62511;47.970;11.774;2023-05-10T10:03:07;3.95;;;0.70;;
74158;SDS011;62511;47.970;11.774;2023-05-10T10:05:50;7.15;;;0.90;;
74158;SDS011;62511;47.970;11.774;2023-05-10T10:08:18;2.35;;;0.70;;
74158;SDS011;62511;47.970;11.774;2023-05-10T10:10:45;3.25;;;0.88;;
74158;SDS011;62511;47.970;11.774;2023-05-10T10:13:12;1.55;;;0.82;;
74158;SDS011;62511;47.970;11.774;2023-05-10T10:15:42;1.10;;;0.90;;
74158;SDS011;62511;47.970;11.774;2023-05-10T10:18:12;0.80;;;0.63;;
74158;SDS011;62511;47.970;11.774;2023-05-10T10:21:00;2.08;;;0.70;;
74158;SDS011;62511;47.970;11.774;2023-05-10T10:26:30;2.10;;;0.70;;
74158;SDS011;62511;47.970;11.774;2023-05-10T10:32:37;1.63;;;0.82;;
74158;SDS011;62511;47.970;11.774;2023-05-10T10:35:04;1.90;;;0.80;;
74158;SDS011;62511;47.970;11.774;2023-05-10T10:37:52;1.00;;;0.70;;
74158;SDS011;62511;47.970;11.774;2023-05-10T10:40:44;2.63;;;0.80;;
74158;SDS011;62511;47.970;11.774;2023-05-10T10:43:29;2.28;;;0.73;;
74158;SDS011;62511;47.970;11.774;2023-05-10T10:46:17;3.83;;;0.77;;
74158;SDS011;62511;47.970;11.774;2023-05-10T10:48:50;2.03;;;0.60;;
74158;SDS011;62511;47.970;11.774;2023-05-10T10:52:12;1.33;;;0.60;;
74158;SDS011;62511;47.970;11.774;2023-05-10T10:54:27;4.15;;;0.70;;
74158;SDS011;62511;47.970;11.774;2023-05-10T10:57:12;0.60;;;0.57;;
74158;SDS011;62511;47.970;11.774;2023-05-10T10:59:42;0.73;;;0.60;;
74158;SDS011;62511;47.970;11.774;2023-05-10T11:04:58;4.55;;;0.77;;
74158;SDS011;62511;47.970;11.774;2023-05-10T11:07:24;2.55;;;1.10;;
74158;SDS011;62511;47.970;11.774;2023-05-10T11:09:51;1.35;;;0.88;;
74158;SDS011;62511;47.970;11.774;2023-05-10T11:14:49;2.65;;;0.88;;
74158;SDS011;62511;47.970;11.774;2023-05-10T11:17:24;1.10;;;1.00;;
74158;SDS011;62511;47.970;11.774;2023-05-10T11:20:06;3.10;;;0.90;;
74158;SDS011;62511;47.970;11.774;2023-05-10T11:22:52;1.85;;;0.50;;
74158;SDS011;62511;47.970;11.774;2023-05-10T11:25:20;2.75;;;1.17;;
74158;SDS011;62511;47.970;11.774;2023-05-10T11:27:49;0.90;;;0.70;;
74158;SDS011;62511;47.970;11.774;2023-05-10T11:30:15;2.03;;;0.98;;
74158;SDS011;62511;47.970;11.774;2023-05-10T11:32:41;1.23;;;0.80;;
74158;SDS011;62511;47.970;11.774;2023-05-10T11:35:07;1.25;;;0.60;;
74158;SDS011;62511;47.970;11.774;2023-05-10T11:37:40;0.80;;;0.57;;
74158;SDS011;62511;47.970;11.774;2023-05-10T11:40:09;1.35;;;0.60;;
74158;SDS011;62511;47.970;11.774;2023-05-10T11:42:38;0.60;;;0.40;;
74158;SDS011;62511;47.970;11.774;2023-05-10T11:45:05;0.73;;;0.40;;
74158;SDS011;62511;47.970;11.774;2023-05-10T11:47:31;0.60;;;0.35;;
74158;SDS011;62511;47.970;11.774;2023-05-10T11:49:57;0.45;;;0.40;;
74158;SDS011;62511;47.970;11.774;2023-05-10T11:52:26;0.47;;;0.38;;
74158;SDS011;62511;47.970;11.774;2023-05-10T11:57:20;0.20;;;0.20;;
74158;SDS011;62511;47.970;11.774;2023-05-10T11:59:47;0.60;;;0.30;;
74158;SDS011;62511;47.970;11.774;2023-05-10T12:02:13;0.50;;;0.30;;
74158;SDS011;62511;47.970;11.774;2023-05-10T12:04:41;0.45;;;0.43;;
74158;SDS011;62511;47.970;11.774;2023-05-10T12:07:07;0.90;;;0.85;;
74158;SDS011;62511;47.970;11.774;2023-05-10T12:09:33;0.52;;;0.40;;
74158;SDS011;62511;47.970;11.774;2023-05-10T12:11:59;1.23;;;0.40;;
74158;SDS011;62511;47.970;11.774;2023-05-10T12:14:28;0.82;;;0.30;;
74158;SDS011;62511;47.970;11.774;2023-05-10T12:16:58;0.63;;;0.40;;
74158;SDS011;62511;47.970;11.774;2023-05-10T12:19:25;0.82;;;0.35;;
74158;SDS011;62511;47.970;11.774;2023-05-10T12:21:51;0.93;;;0.70;;
74158;SDS011;62511;47.970;11.774;2023-05-10T12:24:17;1.20;;;0.50;;
74158;SDS011;62511;47.970;11.774;2023-05-10T12:26:47;0.77;;;0.47;;
74158;SDS011;62511;47.970;11.774;2023-05-10T12:29:15;0.73;;;0.50;;
74158;SDS011;62511;47.970;11.774;2023-05-10T12:31:57;0.45;;;0.45;;
74158;SDS011;62511;47.970;11.774;2023-05-10T12:34:29;0.50;;;0.47;;
74158;SDS011;62511;47.970;11.774;2023-05-10T12:36:56;4.38;;;0.40;;
74158;SDS011;62511;47.970;11.774;2023-05-10T12:39:23;1.02;;;0.50;;
74158;SDS011;62511;47.970;11.774;2023-05-10T12:41:52;3.13;;;0.60;;
74158;SDS011;62511;47.970;11.774;2023-05-10T12:44:21;0.57;;;0.47;;
74158;SDS011;62511;47.970;11.774;2023-05-10T12:47:04;0.80;;;0.60;;
74158;SDS011;62511;47.970;11.774;2023-05-10T12:49:46;1.05;;;0.50;;
74158;SDS011;62511;47.970;11.774;2023-05-10T12:52:12;1.70;;;0.63;;
74158;SDS011;62511;47.970;11.774;2023-05-10T12:54:39;0.75;;;0.43;;
74158;SDS011;62511;47.970;11.774;2023-05-10T12:57:05;0.40;;;0.40;;
74158;SDS011;62511;47.970;11.774;2023-05-10T12:59:34;1.55;;;0.80;;
74158;SDS011;62511;47.970;11.774;2023-05-10T13:02:09;2.70;;;0.60;;
74158;SDS011;62511;47.970;11.774;2023-05-10T13:04:50;1.08;;;0.50;;
74158;SDS011;62511;47.970;11.774;2023-05-10T13:07:16;1.42;;;0.57;;
74158;SDS011;62511;47.970;11.774;2023-05-10T13:09:49;1.63;;;0.75;;
74158;SDS011;62511;47.970;11.774;2023-05-10T13:12:16;0.88;;;0.40;;
74158;SDS011;62511;47.970;11.774;2023-05-10T13:14:54;1.02;;;0.60;;
74158;SDS011;62511;47.970;11.774;2023-05-10T13:17:25;0.50;;;0.30;;
74158;SDS011;62511;47.970;11.774;2023-05-10T13:19:53;0.43;;;0.32;;
74158;SDS011;62511;47.970;11.774;2023-05-10T13:22:25;0.73;;;0.52;;
74158;SDS011;62511;47.970;11.774;2023-05-10T13:24:51;1.77;;;0.73;;
74158;SDS011;62511;47.970;11.774;2023-05-10T13:27:17;1.60;;;0.70;;
74158;SDS011;62511;47.970;11.774;2023-05-10T13:29:45;0.65;;;0.40;;
74158;SDS011;62511;47.970;11.774;2023-05-10T13:32:11;1.17;;;0.60;;
74158;SDS011;62511;47.970;11.774;2023-05-10T13:34:47;1.02;;;0.40;;
74158;SDS011;62511;47.970;11.774;2023-05-10T13:37:14;1.23;;;0.73;;
74158;SDS011;62511;47.970;11.774;2023-05-10T13:39:43;0.43;;;0.43;;
74158;SDS011;62511;47.970;11.774;2023-05-10T13:42:12;2.92;;;0.55;;
74158;SDS011;62511;47.970;11.774;2023-05-10T13:44:41;2.05;;;0.63;;
74158;SDS011;62511;47.970;11.774;2023-05-10T13:47:07;1.50;;;0.47;;
74158;SDS011;62511;47.970;11.774;2023-05-10T13:49:41;0.88;;;0.68;;
74158;SDS011;62511;47.970;11.774;2023-05-10T13:52:28;1.80;;;0.70;;
74158;SDS011;62511;47.970;11.774;2023-05-10T13:54:56;1.13;;;0.52;;
74158;SDS011;62511;47.970;11.774;2023-05-10T13:57:27;1.00;;;0.60;;
74158;SDS011;62511;47.970;11.774;2023-05-10T14:00:03;0.82;;;0.77;;
74158;SDS011;62511;47.970;11.774;2023-05-10T14:02:49;0.80;;;0.60;;
74158;SDS011;62511;47.970;11.774;2023-05-10T14:05:16;1.33;;;0.80;;
74158;SDS011;62511;47.970;11.774;2023-05-10T14:08:04;0.70;;;0.50;;
74158;SDS011;62511;47.970;11.774;2023-05-10T14:10:33;0.52;;;0.40;;
74158;SDS011;62511;47.970;11.774;2023-05-10T14:13:03;0.52;;;0.43;;
74158;SDS011;62511;47.970;11.774;2023-05-10T14:15:29;0.63;;;0.50;;
74158;SDS011;62511;47.970;11.774;2023-05-10T14:17:55;1.77;;;0.50;;
74158;SDS011;62511;47.970;11.774;2023-05-10T14:20:21;1.15;;;0.60;;
74158;SDS011;62511;47.970;11.774;2023-05-10T14:22:50;0.85;;;0.57;;
74158;SDS011;62511;47.970;11.774;2023-05-10T14:25:18;0.70;;;0.63;;
74158;SDS011;62511;47.970;11.774;2023-05-10T14:27:44;0.52;;;0.47;;
74158;SDS011;62511;47.970;11.774;2023-05-10T14:30:15;0.93;;;0.50;;
74158;SDS011;62511;47.970;11.774;2023-05-10T14:32:42;0.77;;;0.60;;
74158;SDS011;62511;47.970;11.774;2023-05-10T14:35:10;1.48;;;0.30;;
74158;SDS011;62511;47.970;11.774;2023-05-10T14:37:47;1.15;;;0.50;;
74158;SDS011;62511;47.970;11.774;2023-05-10T14:40:13;1.15;;;0.52;;
74158;SDS011;62511;47.970;11.774;2023-05-10T14:42:57;0.50;;;0.43;;
74158;SDS011;62511;47.970;11.774;2023-05-10T14:45:26;1.80;;;0.45;;
74158;SDS011;62511;47.970;11.774;2023-05-10T14:47:52;0.50;;;0.40;;
74158;SDS011;62511;47.970;11.774;2023-05-10T14:50:18;0.45;;;0.40;;
74158;SDS011;62511;47.970;11.774;2023-05-10T14:52:47;0.90;;;0.80;;
74158;SDS011;62511;47.970;11.774;2023-05-10T14:55:14;0.52;;;0.50;;
74158;SDS011;62511;47.970;11.774;2023-05-10T14:57:42;0.60;;;0.30;;
74158;SDS011;62511;47.970;11.774;2023-05-10T15:00:17;0.45;;;0.40;;
74158;SDS011;62511;47.970;11.774;2023-05-10T15:02:44;0.47;;;0.30;;
74158;SDS011;62511;47.970;11.774;2023-05-10T15:05:11;0.40;;;0.40;;
74158;SDS011;62511;47.970;11.774;2023-05-10T15:07:37;0.32;;;0.32;;
74158;SDS011;62511;47.970;11.774;2023-05-10T15:10:04;2.85;;;0.68;;
74158;SDS011;62511;47.970;11.774;2023-05-10T15:12:31;0.40;;;0.40;;
74158;SDS011;62511;47.970;11.774;2023-05-10T15:14:57;1.02;;;0.40;;
74158;SDS011;62511;47.970;11.774;2023-05-10T15:17:26;1.00;;;0.40;;
74158;SDS011;62511;47.970;11.774;2023-05-10T15:19:55;1.15;;;0.40;;
74158;SDS011;62511;47.970;11.774;2023-05-10T15:22:34;1.60;;;0.40;;
74158;SDS011;62511;47.970;11.774;2023-05-10T15:25:03;0.40;;;0.30;;
74158;SDS011;62511;47.970;11.774;2023-05-10T15:27:32;0.32;;;0.32;;
74158;SDS011;62511;47.970;11.774;2023-05-10T15:29:58;0.30;;;0.30;;
74158;SDS011;62511;47.970;11.774;2023-05-10T15:32:25;0.20;;;0.20;;
74158;SDS011;62511;47.970;11.774;2023-05-10T15:34:54;0.52;;;0.20;;
74158;SDS011;62511;47.970;11.774;2023-05-10T15:37:20;1.00;;;0.60;;
74158;SDS011;62511;47.970;11.774;2023-05-10T15:39:51;0.88;;;0.70;;
74158;SDS011;62511;47.970;11.774;2023-05-10T15:42:17;0.43;;;0.35;;